sensor_id;sensor_type;location;lat;lon;timestamp;P1;durP1;ratioP1;P2;durP2;ratioP2
41253;SDS011;26987;59.928;30.306;2022-12-10T00:02:27;30.60;;;15.63;;
41253;SDS011;26987;59.928;30.306;2022-12-10T00:04:55;27.23;;;14.90;;
41253;SDS011;26987;59.928;30.306;2022-12-10T00:07:23;33.25;;;16.17;;
41253;SDS011;26987;59.928;30.306;2022-12-10T00:09:52;28.00;;;14.98;;
41253;SDS011;26987;59.928;30.306;2022-12-10T00:12:20;27.42;;;14.43;;
41253;SDS011;26987;59.928;30.306;2022-12-10T00:14:47;29.80;;;14.85;;
41253;SDS011;26987;59.928;30.306;2022-12-10T00:17:15;28.02;;;14.93;;
41253;SDS011;26987;59.928;30.306;2022-12-10T00:19:43;24.13;;;13.55;;
41253;SDS011;26987;59.928;30.306;2022-12-10T00:22:11;27.23;;;14.18;;
41253;SDS011;26987;59.928;30.306;2022-12-10T00:24:39;23.63;;;13.15;;
41253;SDS011;26987;59.928;30.306;2022-12-10T00:27:08;25.13;;;12.65;;
41253;SDS011;26987;59.928;30.306;2022-12-10T00:29:35;21.52;;;11.80;;
41253;SDS011;26987;59.928;30.306;2022-12-10T00:32:03;19.67;;;11.10;;
41253;SDS011;26987;59.928;30.306;2022-12-10T00:34:32;22.15;;;11.88;;
41253;SDS011;26987;59.928;30.306;2022-12-10T00:37:01;21.27;;;11.73;;
41253;SDS011;26987;59.928;30.306;2022-12-10T00:39:29;21.02;;;10.70;;
41253;SDS011;26987;59.928;30.306;2022-12-10T00:41:57;17.50;;;10.43;;
41253;SDS011;26987;59.928;30.306;2022-12-10T00:44:26;21.75;;;10.88;;
41253;SDS011;26987;59.928;30.306;2022-12-10T00:46:54;17.05;;;10.68;;
41253;SDS011;26987;59.928;30.306;2022-12-10T00:49:22;16.48;;;9.82;;
41253;SDS011;26987;59.928;30.306;2022-12-10T00:51:50;18.25;;;10.68;;
41253;SDS011;26987;59.928;30.306;2022-12-10T00:54:18;16.95;;;9.82;;
41253;SDS011;26987;59.928;30.306;2022-12-10T00:56:45;17.85;;;10.50;;
41253;SDS011;26987;59.928;30.306;2022-12-10T00:59:14;15.27;;;9.77;;
41253;SDS011;26987;59.928;30.306;2022-12-10T01:01:43;19.00;;;9.65;;
41253;SDS011;26987;59.928;30.306;2022-12-10T01:04:12;15.52;;;9.18;;
41253;SDS011;26987;59.928;30.306;2022-12-10T01:06:43;14.18;;;8.77;;
41253;SDS011;26987;59.928;30.306;2022-12-10T01:09:12;15.90;;;9.27;;
41253;SDS011;26987;59.928;30.306;2022-12-10T01:11:43;16.35;;;8.65;;
41253;SDS011;26987;59.928;30.306;2022-12-10T01:14:14;14.88;;;9.23;;
41253;SDS011;26987;59.928;30.306;2022-12-10T01:16:49;14.57;;;8.05;;
41253;SDS011;26987;59.928;30.306;2022-12-10T01:19:17;17.67;;;8.60;;
41253;SDS011;26987;59.928;30.306;2022-12-10T01:21:45;15.10;;;8.25;;
41253;SDS011;26987;59.928;30.306;2022-12-10T01:24:12;11.85;;;8.05;;
41253;SDS011;26987;59.928;30.306;2022-12-10T01:26:43;13.88;;;8.10;;
41253;SDS011;26987;59.928;30.306;2022-12-10T01:29:11;12.85;;;8.40;;
41253;SDS011;26987;59.928;30.306;2022-12-10T01:31:39;11.30;;;7.32;;
41253;SDS011;26987;59.928;30.306;2022-12-10T01:34:09;14.00;;;7.90;;
41253;SDS011;26987;59.928;30.306;2022-12-10T01:36:40;10.65;;;7.55;;
41253;SDS011;26987;59.928;30.306;2022-12-10T01:39:12;13.18;;;7.90;;
41253;SDS011;26987;59.928;30.306;2022-12-10T01:41:43;12.20;;;7.80;;
41253;SDS011;26987;59.928;30.306;2022-12-10T01:47:13;12.05;;;7.63;;
41253;SDS011;26987;59.928;30.306;2022-12-10T01:49:42;11.60;;;6.97;;
41253;SDS011;26987;59.928;30.306;2022-12-10T01:52:12;14.65;;;7.22;;
41253;SDS011;26987;59.928;30.306;2022-12-10T01:54:41;12.45;;;7.35;;
41253;SDS011;26987;59.928;30.306;2022-12-10T01:57:10;13.90;;;7.20;;
41253;SDS011;26987;59.928;30.306;2022-12-10T01:59:40;9.98;;;6.63;;
41253;SDS011;26987;59.928;30.306;2022-12-10T02:02:11;10.07;;;6.47;;
41253;SDS011;26987;59.928;30.306;2022-12-10T02:04:47;14.80;;;7.05;;
41253;SDS011;26987;59.928;30.306;2022-12-10T02:07:26;11.95;;;6.60;;
41253;SDS011;26987;59.928;30.306;2022-12-10T02:10:05;15.15;;;6.75;;
41253;SDS011;26987;59.928;30.306;2022-12-10T02:12:43;12.52;;;7.00;;
41253;SDS011;26987;59.928;30.306;2022-12-10T02:15:17;15.80;;;8.07;;
41253;SDS011;26987;59.928;30.306;2022-12-10T02:17:52;16.80;;;8.20;;
41253;SDS011;26987;59.928;30.306;2022-12-10T02:20:24;17.30;;;8.68;;
41253;SDS011;26987;59.928;30.306;2022-12-10T02:22:57;13.00;;;7.88;;
41253;SDS011;26987;59.928;30.306;2022-12-10T02:25:30;16.50;;;8.05;;
41253;SDS011;26987;59.928;30.306;2022-12-10T02:28:05;14.18;;;7.90;;
41253;SDS011;26987;59.928;30.306;2022-12-10T02:30:41;15.60;;;8.20;;
41253;SDS011;26987;59.928;30.306;2022-12-10T02:33:11;15.88;;;7.80;;
41253;SDS011;26987;59.928;30.306;2022-12-10T02:35:41;15.88;;;8.38;;
41253;SDS011;26987;59.928;30.306;2022-12-10T02:38:10;14.40;;;8.48;;
41253;SDS011;26987;59.928;30.306;2022-12-10T02:40:44;18.27;;;9.13;;
41253;SDS011;26987;59.928;30.306;2022-12-10T02:43:15;18.17;;;8.27;;
41253;SDS011;26987;59.928;30.306;2022-12-10T02:45:47;12.55;;;7.82;;
41253;SDS011;26987;59.928;30.306;2022-12-10T02:48:18;16.00;;;9.18;;
41253;SDS011;26987;59.928;30.306;2022-12-10T02:50:46;14.27;;;8.20;;
41253;SDS011;26987;59.928;30.306;2022-12-10T02:53:14;13.23;;;8.23;;
41253;SDS011;26987;59.928;30.306;2022-12-10T02:58:39;13.85;;;8.07;;
41253;SDS011;26987;59.928;30.306;2022-12-10T03:01:19;12.85;;;7.32;;
41253;SDS011;26987;59.928;30.306;2022-12-10T03:03:55;13.95;;;7.85;;
41253;SDS011;26987;59.928;30.306;2022-12-10T03:06:29;12.50;;;7.13;;
41253;SDS011;26987;59.928;30.306;2022-12-10T03:09:04;11.73;;;7.43;;
41253;SDS011;26987;59.928;30.306;2022-12-10T03:11:36;13.30;;;7.88;;
41253;SDS011;26987;59.928;30.306;2022-12-10T03:14:09;11.82;;;7.68;;
41253;SDS011;26987;59.928;30.306;2022-12-10T03:16:43;15.57;;;9.43;;
41253;SDS011;26987;59.928;30.306;2022-12-10T03:19:14;13.15;;;8.45;;
41253;SDS011;26987;59.928;30.306;2022-12-10T03:21:46;14.93;;;8.48;;
41253;SDS011;26987;59.928;30.306;2022-12-10T03:24:18;13.15;;;8.15;;
41253;SDS011;26987;59.928;30.306;2022-12-10T03:26:47;14.85;;;8.65;;
41253;SDS011;26987;59.928;30.306;2022-12-10T03:29:19;13.90;;;9.10;;
41253;SDS011;26987;59.928;30.306;2022-12-10T03:31:52;17.50;;;9.23;;
41253;SDS011;26987;59.928;30.306;2022-12-10T03:34:21;19.30;;;8.90;;
41253;SDS011;26987;59.928;30.306;2022-12-10T03:36:50;22.42;;;9.57;;
41253;SDS011;26987;59.928;30.306;2022-12-10T03:39:18;16.90;;;9.57;;
41253;SDS011;26987;59.928;30.306;2022-12-10T03:41:46;17.55;;;9.75;;
41253;SDS011;26987;59.928;30.306;2022-12-10T03:44:14;16.58;;;10.85;;
41253;SDS011;26987;59.928;30.306;2022-12-10T03:46:55;19.08;;;10.57;;
41253;SDS011;26987;59.928;30.306;2022-12-10T03:49:23;20.85;;;11.98;;
41253;SDS011;26987;59.928;30.306;2022-12-10T03:51:51;21.80;;;12.70;;
41253;SDS011;26987;59.928;30.306;2022-12-10T03:54:19;26.75;;;13.10;;
41253;SDS011;26987;59.928;30.306;2022-12-10T03:56:47;22.90;;;12.55;;
41253;SDS011;26987;59.928;30.306;2022-12-10T03:59:15;31.80;;;12.10;;
41253;SDS011;26987;59.928;30.306;2022-12-10T04:01:43;26.52;;;13.20;;
41253;SDS011;26987;59.928;30.306;2022-12-10T04:04:12;25.25;;;12.77;;
41253;SDS011;26987;59.928;30.306;2022-12-10T04:06:40;24.13;;;13.40;;
41253;SDS011;26987;59.928;30.306;2022-12-10T04:09:09;27.48;;;13.38;;
41253;SDS011;26987;59.928;30.306;2022-12-10T04:11:37;22.27;;;12.65;;
41253;SDS011;26987;59.928;30.306;2022-12-10T04:14:05;23.95;;;12.63;;
41253;SDS011;26987;59.928;30.306;2022-12-10T04:16:50;17.33;;;10.00;;
41253;SDS011;26987;59.928;30.306;2022-12-10T04:19:19;32.83;;;14.05;;
41253;SDS011;26987;59.928;30.306;2022-12-10T04:21:47;26.42;;;13.60;;
41253;SDS011;26987;59.928;30.306;2022-12-10T04:24:33;27.10;;;14.60;;
41253;SDS011;26987;59.928;30.306;2022-12-10T04:27:20;23.17;;;13.02;;
41253;SDS011;26987;59.928;30.306;2022-12-10T04:29:49;22.20;;;12.30;;
41253;SDS011;26987;59.928;30.306;2022-12-10T04:32:17;21.58;;;12.25;;
41253;SDS011;26987;59.928;30.306;2022-12-10T04:34:47;21.45;;;11.93;;
41253;SDS011;26987;59.928;30.306;2022-12-10T04:37:15;21.52;;;11.30;;
41253;SDS011;26987;59.928;30.306;2022-12-10T04:39:44;22.35;;;13.40;;
41253;SDS011;26987;59.928;30.306;2022-12-10T04:42:11;22.67;;;12.15;;
41253;SDS011;26987;59.928;30.306;2022-12-10T04:44:40;22.55;;;11.70;;
41253;SDS011;26987;59.928;30.306;2022-12-10T04:47:08;25.33;;;12.15;;
41253;SDS011;26987;59.928;30.306;2022-12-10T04:49:36;23.77;;;12.13;;
41253;SDS011;26987;59.928;30.306;2022-12-10T04:52:06;23.75;;;13.15;;
41253;SDS011;26987;59.928;30.306;2022-12-10T04:54:35;24.52;;;12.82;;
41253;SDS011;26987;59.928;30.306;2022-12-10T04:57:02;26.48;;;14.00;;
41253;SDS011;26987;59.928;30.306;2022-12-10T04:59:30;25.35;;;13.68;;
41253;SDS011;26987;59.928;30.306;2022-12-10T05:01:58;22.10;;;12.10;;
41253;SDS011;26987;59.928;30.306;2022-12-10T05:04:26;25.00;;;14.15;;
41253;SDS011;26987;59.928;30.306;2022-12-10T05:06:53;24.95;;;13.30;;
41253;SDS011;26987;59.928;30.306;2022-12-10T05:09:22;29.83;;;12.80;;
41253;SDS011;26987;59.928;30.306;2022-12-10T05:11:50;21.15;;;12.05;;
41253;SDS011;26987;59.928;30.306;2022-12-10T05:14:18;20.80;;;10.93;;
41253;SDS011;26987;59.928;30.306;2022-12-10T05:16:45;22.15;;;11.73;;
41253;SDS011;26987;59.928;30.306;2022-12-10T05:19:16;23.17;;;11.77;;
41253;SDS011;26987;59.928;30.306;2022-12-10T05:21:45;25.05;;;12.38;;
41253;SDS011;26987;59.928;30.306;2022-12-10T05:24:31;23.77;;;12.68;;
41253;SDS011;26987;59.928;30.306;2022-12-10T05:26:59;24.55;;;12.52;;
41253;SDS011;26987;59.928;30.306;2022-12-10T05:29:27;27.50;;;14.85;;
41253;SDS011;26987;59.928;30.306;2022-12-10T05:31:55;30.52;;;13.95;;
41253;SDS011;26987;59.928;30.306;2022-12-10T05:34:22;22.55;;;12.93;;
41253;SDS011;26987;59.928;30.306;2022-12-10T05:36:53;24.88;;;12.95;;
41253;SDS011;26987;59.928;30.306;2022-12-10T05:39:21;23.05;;;12.35;;
41253;SDS011;26987;59.928;30.306;2022-12-10T05:41:53;26.83;;;12.68;;
41253;SDS011;26987;59.928;30.306;2022-12-10T05:44:21;27.58;;;14.00;;
41253;SDS011;26987;59.928;30.306;2022-12-10T05:46:49;25.58;;;13.25;;
41253;SDS011;26987;59.928;30.306;2022-12-10T05:49:17;29.85;;;14.60;;
41253;SDS011;26987;59.928;30.306;2022-12-10T05:51:45;29.67;;;16.05;;
41253;SDS011;26987;59.928;30.306;2022-12-10T05:54:12;30.48;;;14.88;;
41253;SDS011;26987;59.928;30.306;2022-12-10T05:56:41;27.80;;;15.63;;
41253;SDS011;26987;59.928;30.306;2022-12-10T05:59:10;26.83;;;15.45;;
41253;SDS011;26987;59.928;30.306;2022-12-10T06:01:37;32.67;;;16.38;;
41253;SDS011;26987;59.928;30.306;2022-12-10T06:04:05;32.65;;;17.25;;
41253;SDS011;26987;59.928;30.306;2022-12-10T06:06:34;35.60;;;18.73;;
41253;SDS011;26987;59.928;30.306;2022-12-10T06:09:03;35.55;;;20.08;;
41253;SDS011;26987;59.928;30.306;2022-12-10T06:11:32;34.97;;;17.45;;
41253;SDS011;26987;59.928;30.306;2022-12-10T06:14:00;35.85;;;18.40;;
41253;SDS011;26987;59.928;30.306;2022-12-10T06:16:30;33.65;;;18.00;;
41253;SDS011;26987;59.928;30.306;2022-12-10T06:18:57;37.03;;;20.17;;
41253;SDS011;26987;59.928;30.306;2022-12-10T06:21:25;39.08;;;19.55;;
41253;SDS011;26987;59.928;30.306;2022-12-10T06:23:53;38.05;;;19.20;;
41253;SDS011;26987;59.928;30.306;2022-12-10T06:26:22;37.05;;;20.83;;
41253;SDS011;26987;59.928;30.306;2022-12-10T06:28:51;40.38;;;20.92;;
41253;SDS011;26987;59.928;30.306;2022-12-10T06:31:19;36.35;;;18.73;;
41253;SDS011;26987;59.928;30.306;2022-12-10T06:33:49;37.17;;;19.45;;
41253;SDS011;26987;59.928;30.306;2022-12-10T06:36:17;35.75;;;17.42;;
41253;SDS011;26987;59.928;30.306;2022-12-10T06:38:46;33.10;;;17.05;;
41253;SDS011;26987;59.928;30.306;2022-12-10T06:41:15;29.95;;;16.05;;
41253;SDS011;26987;59.928;30.306;2022-12-10T06:43:46;32.35;;;16.13;;
41253;SDS011;26987;59.928;30.306;2022-12-10T06:46:14;33.75;;;16.33;;
41253;SDS011;26987;59.928;30.306;2022-12-10T06:48:43;33.92;;;16.40;;
41253;SDS011;26987;59.928;30.306;2022-12-10T06:51:12;29.88;;;15.48;;
41253;SDS011;26987;59.928;30.306;2022-12-10T06:53:40;31.23;;;14.85;;
41253;SDS011;26987;59.928;30.306;2022-12-10T06:56:10;26.98;;;13.77;;
41253;SDS011;26987;59.928;30.306;2022-12-10T06:58:39;29.85;;;14.40;;
41253;SDS011;26987;59.928;30.306;2022-12-10T07:01:09;25.00;;;13.65;;
41253;SDS011;26987;59.928;30.306;2022-12-10T07:03:38;33.00;;;14.35;;
41253;SDS011;26987;59.928;30.306;2022-12-10T07:06:07;29.60;;;13.73;;
41253;SDS011;26987;59.928;30.306;2022-12-10T07:08:37;28.08;;;14.13;;
41253;SDS011;26987;59.928;30.306;2022-12-10T07:11:06;28.58;;;13.30;;
41253;SDS011;26987;59.928;30.306;2022-12-10T07:13:35;23.52;;;13.20;;
41253;SDS011;26987;59.928;30.306;2022-12-10T07:16:10;27.33;;;13.75;;
41253;SDS011;26987;59.928;30.306;2022-12-10T07:18:39;29.17;;;13.18;;
41253;SDS011;26987;59.928;30.306;2022-12-10T07:21:12;23.98;;;13.48;;
41253;SDS011;26987;59.928;30.306;2022-12-10T07:23:42;28.00;;;15.20;;
41253;SDS011;26987;59.928;30.306;2022-12-10T07:26:10;25.77;;;14.05;;
41253;SDS011;26987;59.928;30.306;2022-12-10T07:28:38;27.63;;;15.02;;
41253;SDS011;26987;59.928;30.306;2022-12-10T07:31:07;28.17;;;14.18;;
41253;SDS011;26987;59.928;30.306;2022-12-10T07:33:36;23.63;;;12.80;;
41253;SDS011;26987;59.928;30.306;2022-12-10T07:36:04;23.98;;;13.15;;
41253;SDS011;26987;59.928;30.306;2022-12-10T07:38:32;25.65;;;13.45;;
41253;SDS011;26987;59.928;30.306;2022-12-10T07:41:03;27.17;;;13.32;;
41253;SDS011;26987;59.928;30.306;2022-12-10T07:43:32;29.80;;;13.38;;
41253;SDS011;26987;59.928;30.306;2022-12-10T07:46:04;20.65;;;11.60;;
41253;SDS011;26987;59.928;30.306;2022-12-10T07:48:33;20.55;;;11.48;;
41253;SDS011;26987;59.928;30.306;2022-12-10T07:51:02;20.42;;;10.63;;
41253;SDS011;26987;59.928;30.306;2022-12-10T07:53:30;22.63;;;11.10;;
41253;SDS011;26987;59.928;30.306;2022-12-10T07:55:58;18.08;;;10.38;;
41253;SDS011;26987;59.928;30.306;2022-12-10T07:58:27;23.65;;;10.40;;
41253;SDS011;26987;59.928;30.306;2022-12-10T08:00:54;23.70;;;10.27;;
41253;SDS011;26987;59.928;30.306;2022-12-10T08:03:22;20.83;;;10.68;;
41253;SDS011;26987;59.928;30.306;2022-12-10T08:06:00;15.75;;;9.23;;
41253;SDS011;26987;59.928;30.306;2022-12-10T08:08:34;18.65;;;10.07;;
41253;SDS011;26987;59.928;30.306;2022-12-10T08:11:04;17.10;;;9.82;;
41253;SDS011;26987;59.928;30.306;2022-12-10T08:13:34;19.13;;;11.30;;
41253;SDS011;26987;59.928;30.306;2022-12-10T08:16:02;19.67;;;10.75;;
41253;SDS011;26987;59.928;30.306;2022-12-10T08:18:32;23.15;;;12.43;;
41253;SDS011;26987;59.928;30.306;2022-12-10T08:21:02;23.10;;;11.85;;
41253;SDS011;26987;59.928;30.306;2022-12-10T08:23:31;22.52;;;12.05;;
41253;SDS011;26987;59.928;30.306;2022-12-10T08:26:02;27.60;;;12.48;;
41253;SDS011;26987;59.928;30.306;2022-12-10T08:28:31;26.38;;;11.20;;
41253;SDS011;26987;59.928;30.306;2022-12-10T08:31:00;17.98;;;10.40;;
41253;SDS011;26987;59.928;30.306;2022-12-10T08:33:32;17.80;;;9.77;;
41253;SDS011;26987;59.928;30.306;2022-12-10T08:36:02;20.33;;;10.90;;
41253;SDS011;26987;59.928;30.306;2022-12-10T08:38:31;23.17;;;11.95;;
41253;SDS011;26987;59.928;30.306;2022-12-10T08:40:59;23.45;;;12.73;;
41253;SDS011;26987;59.928;30.306;2022-12-10T08:43:32;20.58;;;11.93;;
41253;SDS011;26987;59.928;30.306;2022-12-10T08:46:02;22.02;;;12.48;;
41253;SDS011;26987;59.928;30.306;2022-12-10T08:48:30;24.80;;;11.95;;
41253;SDS011;26987;59.928;30.306;2022-12-10T08:50:58;24.27;;;11.73;;
41253;SDS011;26987;59.928;30.306;2022-12-10T08:53:27;22.45;;;12.02;;
41253;SDS011;26987;59.928;30.306;2022-12-10T08:55:54;23.48;;;12.90;;
41253;SDS011;26987;59.928;30.306;2022-12-10T08:58:22;20.83;;;12.45;;
41253;SDS011;26987;59.928;30.306;2022-12-10T09:00:50;21.67;;;12.35;;
41253;SDS011;26987;59.928;30.306;2022-12-10T09:03:19;20.33;;;10.88;;
41253;SDS011;26987;59.928;30.306;2022-12-10T09:05:47;18.13;;;10.27;;
41253;SDS011;26987;59.928;30.306;2022-12-10T09:08:15;20.35;;;12.10;;
41253;SDS011;26987;59.928;30.306;2022-12-10T09:10:42;23.73;;;11.65;;
41253;SDS011;26987;59.928;30.306;2022-12-10T09:13:10;26.13;;;12.10;;
41253;SDS011;26987;59.928;30.306;2022-12-10T09:15:39;19.40;;;11.40;;
41253;SDS011;26987;59.928;30.306;2022-12-10T09:18:07;20.58;;;10.68;;
41253;SDS011;26987;59.928;30.306;2022-12-10T09:20:36;24.23;;;11.90;;
41253;SDS011;26987;59.928;30.306;2022-12-10T09:23:04;22.10;;;10.55;;
41253;SDS011;26987;59.928;30.306;2022-12-10T09:25:31;22.52;;;11.45;;
41253;SDS011;26987;59.928;30.306;2022-12-10T09:27:59;19.65;;;10.90;;
41253;SDS011;26987;59.928;30.306;2022-12-10T09:30:27;19.55;;;9.65;;
41253;SDS011;26987;59.928;30.306;2022-12-10T09:32:55;24.27;;;9.57;;
41253;SDS011;26987;59.928;30.306;2022-12-10T09:35:23;16.95;;;8.45;;
41253;SDS011;26987;59.928;30.306;2022-12-10T09:37:52;16.60;;;9.40;;
41253;SDS011;26987;59.928;30.306;2022-12-10T09:40:21;22.38;;;10.40;;
41253;SDS011;26987;59.928;30.306;2022-12-10T09:42:58;43.00;;;11.93;;
41253;SDS011;26987;59.928;30.306;2022-12-10T09:45:32;29.05;;;10.48;;
41253;SDS011;26987;59.928;30.306;2022-12-10T09:48:07;23.55;;;9.10;;
41253;SDS011;26987;59.928;30.306;2022-12-10T09:50:49;25.55;;;12.60;;
41253;SDS011;26987;59.928;30.306;2022-12-10T09:53:24;26.48;;;13.43;;
41253;SDS011;26987;59.928;30.306;2022-12-10T09:55:55;26.95;;;13.10;;
41253;SDS011;26987;59.928;30.306;2022-12-10T09:58:26;21.08;;;11.20;;
41253;SDS011;26987;59.928;30.306;2022-12-10T10:00:56;21.45;;;11.02;;
41253;SDS011;26987;59.928;30.306;2022-12-10T10:03:25;21.63;;;11.45;;
41253;SDS011;26987;59.928;30.306;2022-12-10T10:05:54;21.42;;;11.50;;
41253;SDS011;26987;59.928;30.306;2022-12-10T10:08:27;31.77;;;14.40;;
41253;SDS011;26987;59.928;30.306;2022-12-10T10:13:29;26.92;;;14.02;;
41253;SDS011;26987;59.928;30.306;2022-12-10T10:16:04;28.70;;;14.05;;
41253;SDS011;26987;59.928;30.306;2022-12-10T10:18:45;31.38;;;13.95;;
41253;SDS011;26987;59.928;30.306;2022-12-10T10:21:16;34.28;;;14.15;;
41253;SDS011;26987;59.928;30.306;2022-12-10T10:23:50;24.83;;;12.98;;
41253;SDS011;26987;59.928;30.306;2022-12-10T10:26:19;21.58;;;11.65;;
41253;SDS011;26987;59.928;30.306;2022-12-10T10:28:47;24.92;;;12.85;;
41253;SDS011;26987;59.928;30.306;2022-12-10T10:31:19;20.33;;;10.75;;
41253;SDS011;26987;59.928;30.306;2022-12-10T10:33:50;22.92;;;12.23;;
41253;SDS011;26987;59.928;30.306;2022-12-10T10:36:23;21.33;;;11.75;;
41253;SDS011;26987;59.928;30.306;2022-12-10T10:38:55;25.88;;;11.60;;
41253;SDS011;26987;59.928;30.306;2022-12-10T10:41:23;20.58;;;11.85;;
41253;SDS011;26987;59.928;30.306;2022-12-10T10:43:58;20.55;;;11.77;;
41253;SDS011;26987;59.928;30.306;2022-12-10T10:46:27;22.33;;;12.10;;
41253;SDS011;26987;59.928;30.306;2022-12-10T10:49:13;25.88;;;12.52;;
41253;SDS011;26987;59.928;30.306;2022-12-10T10:51:46;21.98;;;11.50;;
41253;SDS011;26987;59.928;30.306;2022-12-10T10:54:19;24.00;;;12.18;;
41253;SDS011;26987;59.928;30.306;2022-12-10T10:57:00;23.58;;;12.57;;
41253;SDS011;26987;59.928;30.306;2022-12-10T10:59:30;23.52;;;13.45;;
41253;SDS011;26987;59.928;30.306;2022-12-10T11:02:02;35.03;;;12.68;;
41253;SDS011;26987;59.928;30.306;2022-12-10T11:04:44;24.88;;;12.18;;
41253;SDS011;26987;59.928;30.306;2022-12-10T11:07:18;22.55;;;12.95;;
41253;SDS011;26987;59.928;30.306;2022-12-10T11:09:51;21.52;;;11.35;;
41253;SDS011;26987;59.928;30.306;2022-12-10T11:12:21;26.30;;;11.88;;
41253;SDS011;26987;59.928;30.306;2022-12-10T11:14:56;22.92;;;11.75;;
41253;SDS011;26987;59.928;30.306;2022-12-10T11:17:24;23.80;;;11.68;;
41253;SDS011;26987;59.928;30.306;2022-12-10T11:19:55;23.80;;;11.63;;
41253;SDS011;26987;59.928;30.306;2022-12-10T11:22:25;28.70;;;13.85;;
41253;SDS011;26987;59.928;30.306;2022-12-10T11:24:56;26.63;;;13.75;;
41253;SDS011;26987;59.928;30.306;2022-12-10T11:27:38;29.60;;;13.10;;
41253;SDS011;26987;59.928;30.306;2022-12-10T11:30:15;26.48;;;13.23;;
41253;SDS011;26987;59.928;30.306;2022-12-10T11:33:00;33.95;;;15.40;;
41253;SDS011;26987;59.928;30.306;2022-12-10T11:35:44;26.17;;;12.85;;
41253;SDS011;26987;59.928;30.306;2022-12-10T11:38:20;27.67;;;13.93;;
41253;SDS011;26987;59.928;30.306;2022-12-10T11:40:53;25.05;;;13.70;;
41253;SDS011;26987;59.928;30.306;2022-12-10T11:43:34;32.53;;;14.13;;
41253;SDS011;26987;59.928;30.306;2022-12-10T11:46:19;24.70;;;13.20;;
41253;SDS011;26987;59.928;30.306;2022-12-10T11:49:04;25.67;;;13.55;;
41253;SDS011;26987;59.928;30.306;2022-12-10T11:51:43;31.85;;;12.27;;
41253;SDS011;26987;59.928;30.306;2022-12-10T11:54:25;25.42;;;14.85;;
41253;SDS011;26987;59.928;30.306;2022-12-10T11:57:08;25.67;;;13.27;;
41253;SDS011;26987;59.928;30.306;2022-12-10T11:59:44;23.70;;;12.90;;
41253;SDS011;26987;59.928;30.306;2022-12-10T12:02:25;24.58;;;14.20;;
41253;SDS011;26987;59.928;30.306;2022-12-10T12:05:19;26.13;;;14.13;;
41253;SDS011;26987;59.928;30.306;2022-12-10T12:08:03;18.70;;;10.68;;
41253;SDS011;26987;59.928;30.306;2022-12-10T12:13:30;19.70;;;11.77;;
41253;SDS011;26987;59.928;30.306;2022-12-10T12:16:03;21.95;;;12.98;;
41253;SDS011;26987;59.928;30.306;2022-12-10T12:18:37;21.38;;;13.07;;
41253;SDS011;26987;59.928;30.306;2022-12-10T12:21:11;21.60;;;12.77;;
41253;SDS011;26987;59.928;30.306;2022-12-10T12:23:44;23.95;;;13.82;;
41253;SDS011;26987;59.928;30.306;2022-12-10T12:26:18;19.80;;;10.68;;
41253;SDS011;26987;59.928;30.306;2022-12-10T12:28:54;21.60;;;12.02;;
41253;SDS011;26987;59.928;30.306;2022-12-10T12:31:29;22.30;;;12.85;;
41253;SDS011;26987;59.928;30.306;2022-12-10T12:34:01;16.85;;;9.65;;
41253;SDS011;26987;59.928;30.306;2022-12-10T12:36:33;21.02;;;11.77;;
41253;SDS011;26987;59.928;30.306;2022-12-10T12:39:03;16.58;;;10.57;;
41253;SDS011;26987;59.928;30.306;2022-12-10T12:41:40;13.82;;;9.00;;
41253;SDS011;26987;59.928;30.306;2022-12-10T12:44:15;18.38;;;10.77;;
41253;SDS011;26987;59.928;30.306;2022-12-10T12:46:50;19.05;;;9.80;;
41253;SDS011;26987;59.928;30.306;2022-12-10T12:49:20;19.75;;;10.30;;
41253;SDS011;26987;59.928;30.306;2022-12-10T12:51:54;16.75;;;10.30;;
41253;SDS011;26987;59.928;30.306;2022-12-10T12:54:27;19.10;;;10.00;;
41253;SDS011;26987;59.928;30.306;2022-12-10T12:56:59;19.50;;;11.93;;
41253;SDS011;26987;59.928;30.306;2022-12-10T12:59:44;23.83;;;13.00;;
41253;SDS011;26987;59.928;30.306;2022-12-10T13:02:26;18.60;;;11.38;;
41253;SDS011;26987;59.928;30.306;2022-12-10T13:05:12;17.00;;;11.35;;
41253;SDS011;26987;59.928;30.306;2022-12-10T13:07:42;15.23;;;10.10;;
41253;SDS011;26987;59.928;30.306;2022-12-10T13:10:22;18.83;;;10.20;;
41253;SDS011;26987;59.928;30.306;2022-12-10T13:13:05;16.80;;;9.73;;
41253;SDS011;26987;59.928;30.306;2022-12-10T13:15:45;18.13;;;10.77;;
41253;SDS011;26987;59.928;30.306;2022-12-10T13:18:23;16.17;;;9.68;;
41253;SDS011;26987;59.928;30.306;2022-12-10T13:24:09;17.33;;;10.40;;
41253;SDS011;26987;59.928;30.306;2022-12-10T13:26:41;17.65;;;11.35;;
41253;SDS011;26987;59.928;30.306;2022-12-10T13:29:25;19.23;;;10.07;;
41253;SDS011;26987;59.928;30.306;2022-12-10T13:32:01;13.82;;;7.97;;
41253;SDS011;26987;59.928;30.306;2022-12-10T13:34:34;14.32;;;8.70;;
41253;SDS011;26987;59.928;30.306;2022-12-10T13:37:14;14.27;;;9.13;;
41253;SDS011;26987;59.928;30.306;2022-12-10T13:39:52;14.73;;;9.18;;
41253;SDS011;26987;59.928;30.306;2022-12-10T13:42:25;16.70;;;8.63;;
41253;SDS011;26987;59.928;30.306;2022-12-10T13:45:26;15.43;;;8.05;;
41253;SDS011;26987;59.928;30.306;2022-12-10T13:51:11;12.48;;;7.78;;
41253;SDS011;26987;59.928;30.306;2022-12-10T13:54:10;12.68;;;8.20;;
41253;SDS011;26987;59.928;30.306;2022-12-10T13:56:52;11.45;;;7.88;;
41253;SDS011;26987;59.928;30.306;2022-12-10T13:59:30;12.95;;;7.95;;
41253;SDS011;26987;59.928;30.306;2022-12-10T14:02:17;13.07;;;7.22;;
41253;SDS011;26987;59.928;30.306;2022-12-10T14:05:11;12.70;;;6.85;;
41253;SDS011;26987;59.928;30.306;2022-12-10T14:07:50;10.38;;;6.28;;
41253;SDS011;26987;59.928;30.306;2022-12-10T14:10:23;12.80;;;7.50;;
41253;SDS011;26987;59.928;30.306;2022-12-10T14:12:54;11.20;;;6.57;;
41253;SDS011;26987;59.928;30.306;2022-12-10T14:15:22;9.88;;;6.10;;
41253;SDS011;26987;59.928;30.306;2022-12-10T14:17:54;7.75;;;5.57;;
41253;SDS011;26987;59.928;30.306;2022-12-10T14:23:02;10.07;;;6.30;;
41253;SDS011;26987;59.928;30.306;2022-12-10T14:25:51;10.80;;;6.75;;
41253;SDS011;26987;59.928;30.306;2022-12-10T14:28:19;13.25;;;7.57;;
41253;SDS011;26987;59.928;30.306;2022-12-10T14:30:48;14.68;;;7.80;;
41253;SDS011;26987;59.928;30.306;2022-12-10T14:33:16;11.75;;;7.38;;
41253;SDS011;26987;59.928;30.306;2022-12-10T14:35:46;12.43;;;8.20;;
41253;SDS011;26987;59.928;30.306;2022-12-10T14:38:17;15.23;;;8.63;;
41253;SDS011;26987;59.928;30.306;2022-12-10T14:40:48;15.60;;;9.20;;
41253;SDS011;26987;59.928;30.306;2022-12-10T14:43:17;14.48;;;9.40;;
41253;SDS011;26987;59.928;30.306;2022-12-10T14:45:48;16.17;;;9.68;;
41253;SDS011;26987;59.928;30.306;2022-12-10T14:48:19;15.38;;;8.73;;
41253;SDS011;26987;59.928;30.306;2022-12-10T14:50:47;14.15;;;9.63;;
41253;SDS011;26987;59.928;30.306;2022-12-10T14:53:18;19.75;;;11.30;;
41253;SDS011;26987;59.928;30.306;2022-12-10T14:55:50;17.02;;;10.25;;
41253;SDS011;26987;59.928;30.306;2022-12-10T14:58:27;18.85;;;11.25;;
41253;SDS011;26987;59.928;30.306;2022-12-10T15:00:59;15.73;;;9.35;;